Time;durP1;ratioP1;P1;durP2;ratioP2;P2;SDS_P1;SDS_P2;PMS_P1;PMS_P2;Temp;Humidity;BMP_temperature;BMP_pressure;BME280_temperature;BME280_humidity;BME280_pressure;Samples;Min_cycle;Max_cycle;Signal;HPM_P1;HPM_P2
2022/10/27 00:01:35;;;;;;;14.02;6.00;;;13.20;86.90;;;;;;5096113;28;20376;-81
2022/10/27 00:04:01;;;;;;;16.08;6.43;;;13.20;86.70;;;;;;5094456;28;20039;-80
2022/10/27 00:06:27;;;;;;;13.70;6.60;;;13.10;86.50;;;;;;5095906;28;20034;-80
2022/10/27 00:08:52;;;;;;;17.55;6.03;;;13.10;86.70;;;;;;5095859;28;20020;-80
2022/10/27 00:11:18;;;;;;;21.25;6.30;;;13.00;86.60;;;;;;5095807;28;20029;-80
2022/10/27 00:13:44;;;;;;;15.07;6.68;;;12.90;87.10;;;;;;5095814;28;20497;-80
2022/10/27 00:16:14;;;;;;;17.83;7.07;;;12.80;87.10;;;;;;5095709;28;20032;-80
2022/10/27 00:18:40;;;;;;;16.55;6.47;;;12.70;87.30;;;;;;5095686;28;20373;-80
2022/10/27 00:21:15;;;;;;;20.05;7.10;;;12.70;87.60;;;;;;5094443;28;20085;-80
2022/10/27 00:23:42;;;;;;;14.98;6.80;;;12.70;88.00;;;;;;5095545;28;20020;-80
2022/10/27 00:26:11;;;;;;;18.77;6.53;;;12.70;87.80;;;;;;5095609;28;20480;-80
2022/10/27 00:28:37;;;;;;;19.63;7.22;;;12.60;87.80;;;;;;5095366;28;20026;-80
2022/10/27 00:31:16;;;;;;;17.77;6.47;;;12.60;87.70;;;;;;5095479;28;20040;-80
2022/10/27 00:33:43;;;;;;;14.73;6.57;;;12.70;87.80;;;;;;5095518;28;20026;-80
2022/10/27 00:36:12;;;;;;;11.73;5.78;;;12.70;87.70;;;;;;5095250;28;20024;-80
2022/10/27 00:38:38;;;;;;;15.95;6.40;;;12.70;87.90;;;;;;5095416;28;20361;-81
2022/10/27 00:41:05;;;;;;;16.17;6.05;;;12.70;87.50;;;;;;5095421;28;20541;-80
2022/10/27 00:43:38;;;;;;;14.35;5.78;;;12.70;87.80;;;;;;5095411;28;20025;-80
2022/10/27 00:46:32;;;;;;;21.67;6.80;;;12.70;87.90;;;;;;5095264;28;20016;-80
2022/10/27 00:49:05;;;;;;;12.50;5.88;;;12.70;87.70;;;;;;5093790;28;20484;-80
2022/10/27 00:51:31;;;;;;;15.18;6.55;;;12.60;87.60;;;;;;5095066;28;20052;-80
2022/10/27 00:53:56;;;;;;;18.60;6.93;;;12.60;87.40;;;;;;5095152;28;20023;-80
2022/10/27 00:56:23;;;;;;;20.00;6.03;;;12.60;87.40;;;;;;5094904;28;20115;-80
2022/10/27 00:58:49;;;;;;;16.30;6.40;;;12.60;87.30;;;;;;5095032;28;20020;-80
2022/10/27 01:01:15;;;;;;;14.70;5.60;;;12.60;87.40;;;;;;5094894;28;20035;-80
2022/10/27 01:03:42;;;;;;;13.57;5.95;;;12.60;87.40;;;;;;5094828;28;20126;-80
2022/10/27 01:06:08;;;;;;;13.25;6.03;;;12.60;87.20;;;;;;5093485;28;20024;-80
2022/10/27 01:08:35;;;;;;;18.90;6.10;;;12.50;87.60;;;;;;5094769;28;20035;-80
2022/10/27 01:11:01;;;;;;;11.77;5.65;;;12.50;87.70;;;;;;5094709;28;20031;-80
2022/10/27 01:13:26;;;;;;;13.40;5.93;;;12.50;87.90;;;;;;5094573;28;20036;-80
2022/10/27 01:15:52;;;;;;;13.65;5.43;;;12.50;87.90;;;;;;5094481;28;20028;-80
2022/10/27 01:18:20;;;;;;;14.80;5.75;;;12.50;87.80;;;;;;5094606;28;20547;-80
2022/10/27 01:21:05;;;;;;;16.55;6.80;;;12.50;87.70;;;;;;5094365;28;20052;-80
2022/10/27 01:23:45;;;;;;;12.30;5.45;;;12.50;87.30;;;;;;5094392;28;20423;-80
2022/10/27 01:26:35;;;;;;;14.65;5.55;;;12.40;87.10;;;;;;5094495;28;20077;-79
2022/10/27 01:29:20;;;;;;;12.55;5.93;;;12.40;87.40;;;;;;5094280;28;20013;-80
2022/10/27 01:32:16;;;;;;;13.88;5.65;;;12.40;86.80;;;;;;5094075;28;20043;-80
2022/10/27 01:34:47;;;;;;;13.32;5.53;;;12.30;87.10;;;;;;5094173;28;20098;-80
2022/10/27 01:37:19;;;;;;;12.38;5.95;;;12.30;87.40;;;;;;5094177;28;20028;-80
2022/10/27 01:40:38;;;;;;;15.32;5.25;;;12.20;87.50;;;;;;5094126;28;20358;-80
2022/10/27 01:43:08;;;;;;;12.25;5.32;;;12.30;88.30;;;;;;5077271;28;20036;-80
2022/10/27 01:45:37;;;;;;;16.42;5.70;;;12.20;87.50;;;;;;5093976;28;20024;-79
2022/10/27 01:48:05;;;;;;;14.48;5.57;;;12.20;87.40;;;;;;5092612;28;20531;-80
2022/10/27 01:50:36;;;;;;;9.40;5.60;;;12.30;87.40;;;;;;5093642;28;20048;-80
2022/10/27 01:53:01;;;;;;;13.43;5.70;;;12.20;87.50;;;;;;5093906;28;20028;-79
2022/10/27 01:55:46;;;;;;;10.65;5.15;;;12.10;87.30;;;;;;5093986;28;20016;-80
2022/10/27 01:58:17;;;;;;;14.80;5.57;;;12.10;87.60;;;;;;5093948;28;20031;-80
2022/10/27 02:00:54;;;;;;;16.75;5.72;;;12.10;87.40;;;;;;5093401;28;20051;-80
2022/10/27 02:03:26;;;;;;;14.18;5.57;;;12.10;87.20;;;;;;5092815;28;20426;-79
2022/10/27 02:06:03;;;;;;;14.30;5.40;;;12.10;87.30;;;;;;5093778;28;20081;-79
2022/10/27 02:08:47;;;;;;;16.77;5.40;;;12.10;87.70;;;;;;5093577;28;20016;-80
2022/10/27 02:11:13;;;;;;;18.75;5.60;;;12.00;87.20;;;;;;5093548;28;20028;-79
2022/10/27 02:13:43;;;;;;;12.52;5.70;;;12.00;87.50;;;;;;5093467;28;20032;-79
2022/10/27 02:16:15;;;;;;;15.05;5.57;;;11.90;87.40;;;;;;5093180;28;20027;-79
2022/10/27 02:18:51;;;;;;;12.68;5.28;;;11.90;87.20;;;;;;5093587;28;20039;-79
2022/10/27 02:21:18;;;;;;;14.10;6.15;;;11.90;87.20;;;;;;5093526;28;20020;-79
2022/10/27 02:23:44;;;;;;;13.65;5.90;;;11.80;86.80;;;;;;5093280;28;20517;-79
2022/10/27 02:26:27;;;;;;;10.15;5.25;;;11.80;87.30;;;;;;5093310;28;20070;-79
2022/10/27 02:28:56;;;;;;;12.65;5.28;;;11.80;87.20;;;;;;5093407;28;20046;-80
2022/10/27 02:31:26;;;;;;;11.13;5.28;;;11.80;87.20;;;;;;5093201;28;20032;-80
2022/10/27 02:33:52;;;;;;;11.77;5.35;;;11.80;87.30;;;;;;5091906;28;20504;-80
2022/10/27 02:36:18;;;;;;;11.90;4.85;;;11.70;87.40;;;;;;5093308;28;20035;-80
2022/10/27 02:38:43;;;;;;;14.77;5.13;;;11.80;87.70;;;;;;5093127;28;20401;-80
2022/10/27 02:41:09;;;;;;;13.63;5.53;;;11.80;87.40;;;;;;5093197;28;20050;-80
2022/10/27 02:43:35;;;;;;;11.25;5.75;;;11.70;87.10;;;;;;5092916;28;20107;-80
2022/10/27 02:46:00;;;;;;;18.20;8.00;;;11.70;87.20;;;;;;5093065;28;20027;-80
2022/10/27 02:48:26;;;;;;;16.35;7.65;;;11.70;88.10;;;;;;5093212;28;20020;-80
2022/10/27 02:50:51;;;;;;;19.77;7.57;;;11.80;88.30;;;;;;5091641;28;20066;-80
2022/10/27 02:53:17;;;;;;;14.93;6.15;;;11.80;88.40;;;;;;5093013;28;20032;-80
2022/10/27 02:55:42;;;;;;;14.45;6.35;;;11.80;88.00;;;;;;5093147;28;20111;-80
2022/10/27 02:58:08;;;;;;;17.38;7.10;;;11.80;87.50;;;;;;5093139;28;20020;-79
2022/10/27 03:00:33;;;;;;;16.00;6.10;;;11.70;87.30;;;;;;5093019;28;20424;-79
2022/10/27 03:02:59;;;;;;;16.13;5.18;;;11.70;87.50;;;;;;5093042;28;20020;-79
2022/10/27 03:05:24;;;;;;;9.73;5.45;;;11.60;87.80;;;;;;5092908;28;20024;-80
2022/10/27 03:07:50;;;;;;;11.77;5.22;;;11.60;87.90;;;;;;5093078;28;20028;-79
2022/10/27 03:10:16;;;;;;;10.48;5.10;;;11.60;87.70;;;;;;5092789;28;20481;-79
2022/10/27 03:12:44;;;;;;;9.80;5.35;;;11.60;87.80;;;;;;5094388;28;20048;-80
2022/10/27 03:15:10;;;;;;;17.27;6.28;;;11.60;87.90;;;;;;5097034;28;20043;-79
2022/10/27 03:17:35;;;;;;;13.65;5.45;;;11.60;88.00;;;;;;5097015;28;20024;-79
2022/10/27 03:20:01;;;;;;;10.02;4.95;;;11.60;88.20;;;;;;5095761;28;20380;-79
2022/10/27 03:22:26;;;;;;;11.82;4.97;;;11.70;88.20;;;;;;5096938;28;20436;-79
2022/10/27 03:24:52;;;;;;;14.45;5.68;;;11.70;88.10;;;;;;5096830;28;20368;-79
2022/10/27 03:27:17;;;;;;;14.55;5.80;;;11.70;87.90;;;;;;5096823;28;20390;-79
2022/10/27 03:29:43;;;;;;;12.07;4.88;;;11.70;88.10;;;;;;5096815;28;20077;-79
2022/10/27 03:32:08;;;;;;;15.30;5.63;;;11.70;88.30;;;;;;5095175;28;20129;-79
2022/10/27 03:34:34;;;;;;;11.57;5.32;;;11.70;87.90;;;;;;5096611;28;20035;-79
2022/10/27 03:36:59;;;;;;;12.13;5.25;;;11.80;88.00;;;;;;5095316;28;20036;-78
2022/10/27 03:39:25;;;;;;;13.20;5.05;;;11.80;88.10;;;;;;5096490;28;20062;-78
2022/10/27 03:41:50;;;;;;;19.77;5.70;;;11.80;88.30;;;;;;5096535;28;20404;-78
2022/10/27 03:44:16;;;;;;;13.95;5.88;;;11.90;88.40;;;;;;5096352;28;20017;-78
2022/10/27 03:46:41;;;;;;;18.95;5.50;;;11.90;88.30;;;;;;5096225;28;20050;-78
2022/10/27 03:49:07;;;;;;;16.65;5.35;;;11.90;88.60;;;;;;5096335;28;20460;-79
2022/10/27 03:51:32;;;;;;;13.43;5.95;;;11.90;87.10;;;;;;5096060;28;20121;-78
2022/10/27 03:53:58;;;;;;;16.63;5.22;;;11.80;87.20;;;;;;5096251;28;20028;-78
2022/10/27 03:56:23;;;;;;;18.10;5.35;;;11.80;87.80;;;;;;5096278;28;20426;-78
2022/10/27 03:58:49;;;;;;;11.88;5.43;;;11.80;88.40;;;;;;5096185;28;20023;-78
2022/10/27 04:01:15;;;;;;;15.75;6.05;;;11.80;88.40;;;;;;5096122;28;20031;-79
2022/10/27 04:03:40;;;;;;;9.45;4.72;;;11.80;88.70;;;;;;5095952;28;20027;-79
2022/10/27 04:06:06;;;;;;;15.52;5.30;;;11.80;89.10;;;;;;5095992;28;20028;-78
2022/10/27 04:08:31;;;;;;;15.00;5.13;;;11.80;88.40;;;;;;5095936;28;20022;-79
2022/10/27 04:10:57;;;;;;;14.70;5.50;;;11.80;88.30;;;;;;5094480;28;20069;-79
2022/10/27 04:13:22;;;;;;;11.50;4.88;;;11.80;87.90;;;;;;5095957;28;20032;-81
2022/10/27 04:15:48;;;;;;;15.20;5.57;;;11.80;87.80;;;;;;5095905;28;20027;-79
2022/10/27 04:18:13;;;;;;;16.02;5.38;;;11.80;87.70;;;;;;5095763;28;20571;-80
2022/10/27 04:20:39;;;;;;;19.55;5.18;;;11.80;87.80;;;;;;5095824;28;20081;-81
2022/10/27 04:23:04;;;;;;;10.98;5.00;;;11.80;87.90;;;;;;5095232;28;20020;-81
2022/10/27 04:25:30;;;;;;;14.23;5.60;;;11.80;88.80;;;;;;5095660;28;20078;-81
2022/10/27 04:28:07;;;;;;;18.42;5.85;;;11.80;88.00;;;;;;5094359;28;20472;-79
2022/10/27 04:30:33;;;;;;;15.27;5.22;;;11.80;87.90;;;;;;5095454;28;20620;-80
2022/10/27 04:32:59;;;;;;;9.18;5.03;;;11.70;87.50;;;;;;5095512;28;20081;-80
2022/10/27 04:35:25;;;;;;;18.88;5.75;;;11.80;87.30;;;;;;5095440;28;20024;-81
2022/10/27 04:37:50;;;;;;;14.60;5.45;;;11.80;87.40;;;;;;5095429;28;20052;-82
2022/10/27 04:40:16;;;;;;;13.43;5.13;;;11.70;87.40;;;;;;5093986;28;20533;-81
2022/10/27 04:42:46;;;;;;;11.90;4.97;;;11.80;87.40;;;;;;5094088;28;20415;-81
2022/10/27 04:45:12;;;;;;;14.27;5.78;;;11.80;87.30;;;;;;5095357;28;20481;-82
2022/10/27 04:47:38;;;;;;;15.10;4.70;;;11.80;87.00;;;;;;5095131;28;20035;-82
2022/10/27 04:50:04;;;;;;;12.65;4.65;;;11.80;87.30;;;;;;5095009;28;20480;-81
2022/10/27 04:52:30;;;;;;;13.60;5.68;;;11.90;87.50;;;;;;5093881;28;20059;-80
2022/10/27 04:54:56;;;;;;;11.73;5.22;;;11.90;87.00;;;;;;5095086;28;20078;-78
2022/10/27 04:57:21;;;;;;;11.40;4.88;;;12.00;86.60;;;;;;5095147;28;20046;-79
2022/10/27 04:59:47;;;;;;;12.02;4.47;;;12.00;86.20;;;;;;5095023;28;20406;-79
2022/10/27 05:02:13;;;;;;;10.57;4.72;;;12.10;85.80;;;;;;5095065;28;20024;-79
2022/10/27 05:04:38;;;;;;;16.83;5.20;;;12.20;85.20;;;;;;5094857;28;20069;-79
2022/10/27 05:07:04;;;;;;;9.63;4.68;;;12.30;84.70;;;;;;5094796;28;20020;-78
2022/10/27 05:09:29;;;;;;;15.52;4.40;;;12.30;84.50;;;;;;5093398;28;20487;-77
2022/10/27 05:11:55;;;;;;;17.02;4.80;;;12.40;85.20;;;;;;5094580;28;20040;-75
2022/10/27 05:14:20;;;;;;;8.65;4.82;;;12.40;83.80;;;;;;5094630;28;20117;-76
2022/10/27 05:16:46;;;;;;;17.38;4.63;;;12.40;83.90;;;;;;5092770;28;20055;-75
2022/10/27 05:19:11;;;;;;;9.50;3.92;;;12.40;83.60;;;;;;5094370;28;20021;-77
2022/10/27 05:21:37;;;;;;;9.88;4.38;;;12.40;83.60;;;;;;5092556;28;20298;-77
2022/10/27 05:24:03;;;;;;;10.77;3.92;;;12.40;82.80;;;;;;5094213;28;20051;-77
2022/10/27 05:26:29;;;;;;;12.23;3.85;;;12.30;82.90;;;;;;5094184;28;20024;-78
2022/10/27 05:28:54;;;;;;;16.80;5.35;;;12.40;82.60;;;;;;5094925;28;20054;-80
2022/10/27 05:31:20;;;;;;;14.52;4.68;;;12.40;83.60;;;;;;5094191;28;20107;-83
2022/10/27 05:33:45;;;;;;;12.40;3.92;;;12.50;83.00;;;;;;5093094;28;20420;-79
2022/10/27 05:36:11;;;;;;;11.13;4.20;;;12.70;82.20;;;;;;5093218;28;20418;-80
2022/10/27 05:38:38;;;;;;;13.27;4.00;;;12.90;81.60;;;;;;5093752;28;20028;-81
2022/10/27 05:41:04;;;;;;;13.05;3.88;;;13.00;80.50;;;;;;5093979;28;20053;-80
2022/10/27 05:43:29;;;;;;;9.05;3.33;;;13.20;79.70;;;;;;5093962;28;20063;-78
2022/10/27 05:45:55;;;;;;;12.70;3.22;;;13.30;79.20;;;;;;5093746;28;20468;-78
2022/10/27 05:48:21;;;;;;;10.30;3.67;;;13.50;78.50;;;;;;5093949;28;20040;-80
2022/10/27 05:50:52;;;;;;;11.23;3.35;;;13.60;77.70;;;;;;5093570;28;20078;-78
2022/10/27 05:53:17;;;;;;;9.02;3.40;;;13.80;78.00;;;;;;5093881;28;20027;-78
2022/10/27 05:55:43;;;;;;;10.07;3.13;;;13.90;76.20;;;;;;5093859;28;20028;-79
2022/10/27 05:58:09;;;;;;;10.80;3.70;;;14.10;75.80;;;;;;5093888;28;20168;-78
2022/10/27 06:00:37;;;;;;;11.80;3.40;;;14.20;76.60;;;;;;5093862;28;20024;-78
2022/10/27 06:03:04;;;;;;;7.60;3.25;;;14.40;75.30;;;;;;5093686;28;20030;-77
2022/10/27 06:05:32;;;;;;;13.75;3.50;;;14.60;73.80;;;;;;5093622;28;20440;-77
2022/10/27 06:07:57;;;;;;;13.05;3.03;;;14.60;72.90;;;;;;5093410;28;20102;-77
2022/10/27 06:10:24;;;;;;;11.25;3.38;;;14.70;72.50;;;;;;5092153;28;20055;-76
2022/10/27 06:12:49;;;;;;;9.18;3.10;;;14.60;71.70;;;;;;5092128;28;20368;-76
2022/10/27 06:15:15;;;;;;;9.30;3.08;;;14.40;72.10;;;;;;5092034;28;20107;-77
2022/10/27 06:17:41;;;;;;;13.07;3.00;;;14.30;72.60;;;;;;5093351;28;20493;-76
2022/10/27 06:20:07;;;;;;;11.55;3.35;;;14.10;73.10;;;;;;5091956;28;20106;-76
2022/10/27 06:22:32;;;;;;;12.30;3.60;;;14.00;73.50;;;;;;5091888;28;20406;-76
2022/10/27 06:24:58;;;;;;;11.50;3.10;;;13.90;74.90;;;;;;5093258;28;20069;-76
2022/10/27 06:27:23;;;;;;;5.90;3.10;;;13.80;74.40;;;;;;5093297;28;20016;-76
2022/10/27 06:29:49;;;;;;;11.43;3.10;;;13.70;74.90;;;;;;5093322;28;20495;-76
2022/10/27 06:32:15;;;;;;;9.80;3.47;;;13.70;75.10;;;;;;5093271;28;20067;-77
2022/10/27 06:34:40;;;;;;;12.73;2.95;;;13.70;75.40;;;;;;5093554;28;20460;-77
2022/10/27 06:37:06;;;;;;;15.18;3.58;;;13.60;75.50;;;;;;5093335;28;20040;-77
2022/10/27 06:39:32;;;;;;;10.32;2.90;;;13.50;75.80;;;;;;5093193;28;20028;-77
2022/10/27 06:41:58;;;;;;;13.07;3.60;;;13.60;75.80;;;;;;5093115;28;20027;-77
2022/10/27 06:44:24;;;;;;;11.18;3.25;;;13.60;75.70;;;;;;5093079;28;20024;-77
2022/10/27 06:46:50;;;;;;;9.45;3.17;;;13.60;75.70;;;;;;5092812;28;20016;-77
2022/10/27 06:49:16;;;;;;;8.77;3.13;;;13.70;75.60;;;;;;5092935;28;20032;-77
2022/10/27 06:51:41;;;;;;;13.27;3.70;;;13.70;75.10;;;;;;5092723;28;20055;-77
2022/10/27 06:54:07;;;;;;;12.25;3.08;;;13.70;75.00;;;;;;5092980;28;20085;-77
2022/10/27 06:56:33;;;;;;;13.32;3.40;;;13.90;74.90;;;;;;5092874;28;20038;-77
2022/10/27 06:58:59;;;;;;;11.43;2.70;;;13.90;74.90;;;;;;5091425;28;20024;-77
2022/10/27 07:01:25;;;;;;;11.57;3.42;;;13.90;74.70;;;;;;5092755;28;20382;-77
2022/10/27 07:03:50;;;;;;;12.07;3.13;;;14.00;74.30;;;;;;5087038;28;20476;-77
2022/10/27 07:06:16;;;;;;;13.52;3.10;;;14.10;74.10;;;;;;5092542;28;20028;-77
2022/10/27 07:08:41;;;;;;;10.65;3.50;;;14.10;73.70;;;;;;5091266;28;20085;-78
2022/10/27 07:11:08;;;;;;;9.18;2.78;;;14.20;73.20;;;;;;5092425;28;20368;-77
2022/10/27 07:13:34;;;;;;;8.50;3.03;;;14.30;72.90;;;;;;5092634;28;20110;-77
2022/10/27 07:16:00;;;;;;;11.15;2.97;;;14.30;72.60;;;;;;5092488;28;20052;-77
2022/10/27 07:18:25;;;;;;;8.00;3.17;;;14.40;72.60;;;;;;5092738;28;20028;-78
2022/10/27 07:20:52;;;;;;;18.10;3.05;;;14.40;72.30;;;;;;5091186;28;20020;-77
2022/10/27 07:23:19;;;;;;;10.70;3.40;;;14.40;72.20;;;;;;5092624;28;20103;-78
2022/10/27 07:25:48;;;;;;;8.48;2.85;;;14.50;72.20;;;;;;5092632;28;20448;-77
2022/10/27 07:28:14;;;;;;;12.23;3.72;;;14.60;71.80;;;;;;5092715;28;20020;-77
2022/10/27 07:30:44;;;;;;;9.13;3.00;;;14.60;71.60;;;;;;5092258;28;20032;-77
2022/10/27 07:33:10;;;;;;;10.05;3.40;;;14.70;71.60;;;;;;5092718;28;20036;-77
2022/10/27 07:35:36;;;;;;;9.85;3.38;;;14.80;71.10;;;;;;5092628;28;20104;-78
2022/10/27 07:38:02;;;;;;;10.57;3.00;;;14.90;70.50;;;;;;5092570;28;20453;-77
2022/10/27 07:40:28;;;;;;;9.40;2.90;;;15.00;70.00;;;;;;5091097;28;20017;-77
2022/10/27 07:43:00;;;;;;;10.52;2.47;;;15.10;69.30;;;;;;5092197;28;20039;-77
2022/10/27 07:45:27;;;;;;;10.82;2.40;;;15.20;68.90;;;;;;5092149;28;20016;-77
2022/10/27 07:47:55;;;;;;;9.35;2.90;;;15.30;68.70;;;;;;5092578;28;20017;-78
2022/10/27 07:50:22;;;;;;;11.35;2.95;;;15.40;68.20;;;;;;5092304;28;20024;-77
2022/10/27 07:52:50;;;;;;;9.13;2.45;;;15.60;67.60;;;;;;5092423;28;20479;-78
2022/10/27 07:55:18;;;;;;;6.55;2.97;;;15.70;67.20;;;;;;5092302;28;20430;-77
2022/10/27 07:57:44;;;;;;;6.93;2.33;;;15.80;66.80;;;;;;5092064;28;20032;-77
2022/10/27 08:00:13;;;;;;;7.18;2.67;;;15.80;66.60;;;;;;5095846;28;20048;-77
2022/10/27 08:02:39;;;;;;;8.50;2.50;;;16.00;66.10;;;;;;5096098;28;20472;-77
2022/10/27 08:05:05;;;;;;;8.52;2.42;;;16.10;65.60;;;;;;5096049;28;20062;-77
2022/10/27 08:07:32;;;;;;;11.98;2.70;;;16.30;65.20;;;;;;5095976;28;20016;-76
2022/10/27 08:09:57;;;;;;;12.18;3.05;;;16.40;64.40;;;;;;5185902;22;20180;-78
2022/10/27 08:12:23;;;;;;;11.77;2.60;;;16.50;64.50;;;;;;5030105;28;20120;-77
2022/10/27 08:14:48;;;;;;;14.43;3.22;;;16.60;63.80;;;;;;5035672;28;20045;-76
2022/10/27 08:17:14;;;;;;;7.55;2.33;;;16.70;63.50;;;;;;5034655;28;20485;-75
2022/10/27 08:19:40;;;;;;;9.65;2.33;;;16.80;62.30;;;;;;5034274;28;20022;-76
2022/10/27 08:22:06;;;;;;;9.20;2.65;;;16.90;62.30;;;;;;5034427;28;20390;-76
2022/10/27 08:24:32;;;;;;;5.57;1.77;;;17.00;61.80;;;;;;5034549;28;20026;-76
2022/10/27 08:26:58;;;;;;;7.65;2.40;;;17.10;61.10;;;;;;5034406;28;20516;-76
2022/10/27 08:29:25;;;;;;;7.03;2.70;;;17.20;60.70;;;;;;5034214;28;20021;-78
2022/10/27 08:31:51;;;;;;;7.13;1.85;;;17.30;60.50;;;;;;5033953;28;20061;-76
2022/10/27 08:34:16;;;;;;;9.07;2.78;;;17.40;60.20;;;;;;5017640;28;20053;-76
2022/10/27 08:36:42;;;;;;;6.93;2.20;;;17.60;60.30;;;;;;5017607;28;20057;-76
2022/10/27 08:39:08;;;;;;;8.73;2.72;;;17.70;60.10;;;;;;5033777;28;20545;-76
2022/10/27 08:42:13;;;;;;;13.13;2.20;;;17.80;59.70;;;;;;5035257;28;20022;-76
2022/10/27 08:44:49;;;;;;;14.13;2.33;;;17.90;59.00;;;;;;5033770;28;20041;-77
2022/10/27 08:47:22;;;;;;;9.50;2.25;;;18.00;58.50;;;;;;5033475;28;20030;-78
2022/10/27 08:49:55;;;;;;;10.27;2.47;;;18.10;58.90;;;;;;5033776;28;20504;-77
2022/10/27 08:52:34;;;;;;;6.85;2.20;;;18.20;58.30;;;;;;5033343;28;20038;-78
2022/10/27 08:55:17;;;;;;;10.85;2.67;;;18.40;57.90;;;;;;5033724;28;20407;-78
2022/10/27 08:58:12;;;;;;;10.43;2.58;;;18.50;56.90;;;;;;5033411;28;20533;-77
2022/10/27 09:00:53;;;;;;;10.23;2.25;;;18.70;56.40;;;;;;5028081;28;20563;-78
2022/10/27 09:03:39;;;;;;;9.85;2.58;;;18.80;56.20;;;;;;5033559;28;20025;-77
2022/10/27 09:06:30;;;;;;;8.43;2.25;;;19.00;55.20;;;;;;5033763;28;20030;-77
2022/10/27 09:09:05;;;;;;;8.32;2.20;;;19.30;54.10;;;;;;5033755;28;20026;-77
2022/10/27 09:12:27;;;;;;;8.68;2.40;;;19.50;53.50;;;;;;5034713;28;20037;-77
2022/10/27 09:15:01;;;;;;;9.82;2.42;;;19.70;52.70;;;;;;4991461;28;20056;-76
2022/10/27 09:17:34;;;;;;;18.85;2.95;;;19.90;50.90;;;;;;5032351;28;20095;-77
2022/10/27 09:20:05;;;;;;;10.85;2.95;;;20.10;51.00;;;;;;5036915;28;20044;-78
2022/10/27 09:22:36;;;;;;;9.70;2.38;;;20.20;50.50;;;;;;5033277;28;20029;-77
2022/10/27 09:25:18;;;;;;;9.68;2.08;;;20.50;50.50;;;;;;5032745;28;20045;-77
2022/10/27 09:27:48;;;;;;;5.07;1.73;;;20.80;49.10;;;;;;5032721;28;20087;-77
2022/10/27 09:30:15;;;;;;;5.93;2.00;;;21.00;48.80;;;;;;5032746;28;20071;-77
2022/10/27 09:32:47;;;;;;;8.07;1.80;;;21.30;48.10;;;;;;5032661;28;20520;-77
2022/10/27 09:35:16;;;;;;;8.88;2.17;;;21.50;47.80;;;;;;5032955;28;20029;-77
2022/10/27 09:37:44;;;;;;;15.18;2.47;;;21.70;46.30;;;;;;5032910;28;20083;-77
2022/10/27 09:40:17;;;;;;;8.63;2.10;;;21.90;47.00;;;;;;5033500;28;20033;-77
2022/10/27 09:42:43;;;;;;;7.15;2.30;;;22.10;46.20;;;;;;5033826;28;20363;-77
2022/10/27 09:45:18;;;;;;;5.30;1.80;;;22.30;44.40;;;;;;5033923;28;20095;-77
2022/10/27 09:47:54;;;;;;;15.82;2.90;;;22.50;44.10;;;;;;5034534;28;20409;-77
2022/10/27 09:50:24;;;;;;;;;;;22.70;43.90;;;;;;5033589;28;20095;-76
2022/10/27 09:52:51;;;;;;;9.15;2.13;;;23.00;43.90;;;;;;5034297;28;19909;-77
2022/10/27 09:55:20;;;;;;;10.98;2.97;;;23.10;42.20;;;;;;5032542;28;20063;-78
2022/10/27 09:57:48;;;;;;;7.10;2.40;;;23.30;41.40;;;;;;5033168;28;20402;-78
2022/10/27 10:00:20;;;;;;;11.18;2.25;;;23.50;41.90;;;;;;5034158;28;20037;-78
2022/10/27 10:03:04;;;;;;;5.00;1.70;;;23.70;41.30;;;;;;5033149;28;20074;-78
2022/10/27 10:05:35;;;;;;;10.32;2.13;;;23.90;40.10;;;;;;5034232;28;20033;-78
2022/10/27 10:08:24;;;;;;;8.88;1.98;;;24.10;39.80;;;;;;5032910;28;20485;-77
2022/10/27 10:11:05;;;;;;;12.98;1.98;;;24.30;40.00;;;;;;5032760;28;20084;-79
2022/10/27 10:13:33;;;;;;;7.10;1.95;;;24.60;39.50;;;;;;5032996;28;20022;-77
2022/10/27 10:16:15;;;;;;;6.40;1.88;;;24.80;38.30;;;;;;5032886;28;20021;-79
2022/10/27 10:18:55;;;;;;;8.48;2.20;;;25.00;37.50;;;;;;5032913;28;20376;-79
2022/10/27 10:21:22;;;;;;;9.55;2.40;;;25.10;37.00;;;;;;5031490;28;20445;-78
2022/10/27 10:23:47;;;;;;;8.20;1.95;;;25.30;36.80;;;;;;5031670;28;20029;-79
2022/10/27 10:26:25;;;;;;;7.43;1.75;;;25.40;35.70;;;;;;5026899;28;20026;-78
2022/10/27 10:28:54;;;;;;;7.05;1.98;;;25.50;35.90;;;;;;5032225;28;20068;-78
2022/10/27 10:31:28;;;;;;;7.28;1.83;;;25.60;36.00;;;;;;5032334;28;20057;-78
2022/10/27 10:34:03;;;;;;;9.00;2.47;;;25.80;34.40;;;;;;5030641;28;20017;-78
2022/10/27 10:36:39;;;;;;;5.78;1.52;;;25.80;33.70;;;;;;5031830;28;20026;-78
2022/10/27 10:39:26;;;;;;;8.70;2.08;;;25.90;34.50;;;;;;5031105;28;20116;-78
2022/10/27 10:42:10;;;;;;;8.50;1.88;;;26.10;34.60;;;;;;5030406;28;20037;-78
2022/10/27 10:44:37;;;;;;;8.05;1.98;;;26.30;33.20;;;;;;5031163;28;20018;-79
2022/10/27 10:47:06;;;;;;;6.90;1.35;;;26.40;32.90;;;;;;5031043;28;20028;-79
2022/10/27 10:49:36;;;;;;;5.53;1.52;;;26.60;32.70;;;;;;5014243;28;20041;-80
2022/10/27 10:52:05;;;;;;;3.95;1.10;;;26.70;31.50;;;;;;5038418;28;20029;-80
2022/10/27 10:54:41;;;;;;;5.90;1.45;;;26.80;30.90;;;;;;5034201;28;20395;-85
2022/10/27 10:57:26;;;;;;;7.07;1.88;;;26.90;31.00;;;;;;5031701;28;20025;-78
2022/10/27 10:59:56;;;;;;;6.60;1.60;;;27.10;31.30;;;;;;5047937;28;20079;-82
2022/10/27 11:02:33;;;;;;;7.72;1.08;;;27.30;29.80;;;;;;5032514;28;20034;-85
2022/10/27 11:05:19;;;;;;;3.38;1.40;;;27.30;28.70;;;;;;5032574;28;20029;-79
2022/10/27 11:07:49;;;;;;;5.90;1.63;;;27.30;28.70;;;;;;5031054;28;20025;-83
2022/10/27 11:10:23;;;;;;;11.05;1.60;;;27.40;30.30;;;;;;5013995;28;20050;-82
2022/10/27 11:13:11;;;;;;;5.07;1.70;;;27.50;28.20;;;;;;5031934;28;20072;-84
2022/10/27 11:16:03;;;;;;;10.40;2.38;;;27.60;28.00;;;;;;5031703;28;20036;-82
2022/10/27 11:18:47;;;;;;;8.85;1.80;;;27.90;27.20;;;;;;5030133;28;20029;-78
2022/10/27 11:22:06;;;;;;;4.45;1.42;;;27.90;27.00;;;;;;5030315;28;20478;-79
2022/10/27 11:24:57;;;;;;;9.93;2.10;;;28.10;25.80;;;;;;5023423;28;20026;-80
2022/10/27 11:27:41;;;;;;;3.45;1.35;;;28.30;26.80;;;;;;5032061;28;20029;-88
2022/10/27 11:30:18;;;;;;;6.53;1.30;;;28.40;25.40;;;;;;5028854;28;20021;-85
2022/10/27 11:33:33;;;;;;;6.72;1.50;;;28.60;23.90;;;;;;5033803;28;20021;-84
2022/10/27 11:36:08;;;;;;;7.03;1.65;;;28.70;24.40;;;;;;5017237;28;20030;-87
2022/10/27 11:39:03;;;;;;;6.10;1.80;;;28.90;25.00;;;;;;5035148;28;20021;-83
2022/10/27 11:41:34;;;;;;;13.15;2.15;;;29.10;25.50;;;;;;5035285;28;20110;-85
2022/10/27 11:44:22;;;;;;;9.23;1.70;;;29.30;25.00;;;;;;5052124;28;20028;-89
2022/10/27 11:46:56;;;;;;;5.72;1.10;;;29.30;22.20;;;;;;5053299;28;20021;-84
2022/10/27 11:49:35;;;;;;;6.50;1.35;;;29.00;21.40;;;;;;5037554;28;20478;-83
2022/10/27 11:52:24;;;;;;;8.85;1.73;;;28.90;21.60;;;;;;5036026;28;20029;-89
2022/10/27 11:54:51;;;;;;;3.97;1.52;;;28.70;22.70;;;;;;5031549;28;20034;-87
2022/10/27 11:57:16;;;;;;;8.82;1.50;;;28.40;23.70;;;;;;5035138;28;20432;-84
2022/10/27 11:59:59;;;;;;;4.97;1.67;;;28.20;23.30;;;;;;5051705;28;20466;-81
2022/10/27 12:02:51;;;;;;;8.43;1.80;;;28.10;23.60;;;;;;5035878;28;20478;-85
2022/10/27 12:05:54;;;;;;;9.02;1.88;;;28.10;23.50;;;;;;5052478;28;20026;-84
2022/10/27 12:08:30;;;;;;;4.95;1.70;;;28.30;22.70;;;;;;5051926;28;20553;-84
2022/10/27 12:11:16;;;;;;;8.73;1.48;;;28.40;23.30;;;;;;5037035;28;20124;-88
2022/10/27 12:14:10;;;;;;;5.60;1.50;;;28.60;22.50;;;;;;5051306;28;20036;-82
2022/10/27 12:16:47;;;;;;;5.10;1.30;;;29.00;22.70;;;;;;5020095;28;20040;-80
2022/10/27 12:19:35;;;;;;;4.43;1.23;;;29.40;21.60;;;;;;5035537;28;20489;-81
2022/10/27 12:22:21;;;;;;;5.53;1.58;;;29.80;21.20;;;;;;5027973;28;20429;-81
2022/10/27 12:24:59;;;;;;;;;;;29.80;20.20;;;;;;5035673;28;20052;-81
2022/10/27 12:27:32;;;;;;;7.82;1.75;;;29.70;20.70;;;;;;5050468;28;19905;-80
2022/10/27 12:30:14;;;;;;;6.75;1.98;;;29.80;20.60;;;;;;5034173;28;20026;-80
2022/10/27 12:32:43;;;;;;;8.00;1.70;;;30.10;20.30;;;;;;5028426;28;20032;-81
2022/10/27 12:35:33;;;;;;;17.55;12.50;;;30.30;19.70;;;;;;5033891;28;20079;-82
2022/10/27 12:38:15;;;;;;;3.30;1.45;;;29.80;19.20;;;;;;5034023;28;20427;-82
2022/10/27 12:41:25;;;;;;;10.13;2.28;;;30.00;19.40;;;;;;5033833;28;20029;-82
2022/10/27 12:44:06;;;;;;;10.93;2.10;;;29.70;20.00;;;;;;5033484;28;20478;-82
2022/10/27 12:47:02;;;;;;;15.35;1.63;;;29.30;21.60;;;;;;5050289;28;20027;-82
2022/10/27 12:49:44;;;;;;;7.93;1.92;;;29.00;22.00;;;;;;5050120;28;20032;-81
2022/10/27 12:52:24;;;;;;;5.85;1.90;;;28.80;22.40;;;;;;5033638;28;20393;-81
2022/10/27 12:55:24;;;;;;;7.95;2.00;;;28.90;21.70;;;;;;5033515;28;20032;-81
2022/10/27 12:58:12;;;;;;;7.18;2.28;;;28.90;22.90;;;;;;5032527;28;20056;-81
2022/10/27 13:00:51;;;;;;;11.80;2.78;;;28.90;23.20;;;;;;5033531;28;20446;-81
2022/10/27 13:03:48;;;;;;;10.02;1.48;;;29.20;23.00;;;;;;5031459;28;20109;-81